createdAt,value
2019-05-12T00:00:52.623Z,8.80
2019-05-12T00:01:58.776Z,8.70
2019-05-12T00:03:03.234Z,8.70
2019-05-12T00:04:08.197Z,8.80
2019-05-12T00:05:12.579Z,8.80
2019-05-12T00:06:17.660Z,8.70
2019-05-12T00:07:22.108Z,8.70
2019-05-12T00:08:27.719Z,8.70
2019-05-12T00:09:32.047Z,8.70
2019-05-12T00:10:38.625Z,8.80
2019-05-12T00:11:42.515Z,8.70
2019-05-12T00:12:48.194Z,8.70
2019-05-12T00:13:52.896Z,8.70
2019-05-12T00:14:58.991Z,8.70
2019-05-12T00:16:03.332Z,8.70
2019-05-12T00:17:08.268Z,8.70
2019-05-12T00:18:12.479Z,8.80
2019-05-12T00:19:17.937Z,8.70
2019-05-12T00:20:22.243Z,8.70
2019-05-12T00:21:28.315Z,8.60
2019-05-12T00:22:38.175Z,8.70
2019-05-12T00:24:00.036Z,8.60
2019-05-12T00:25:04.338Z,8.60
2019-05-12T00:26:08.846Z,8.60
2019-05-12T00:27:17.861Z,8.60
2019-05-12T00:28:22.547Z,8.60
2019-05-12T00:29:28.692Z,8.60
2019-05-12T00:30:39.031Z,8.60
2019-05-12T00:31:43.399Z,8.60
2019-05-12T00:32:48.018Z,8.50
2019-05-12T00:33:52.229Z,8.50
2019-05-12T00:34:58.519Z,8.50
2019-05-12T00:36:02.785Z,8.50
2019-05-12T00:37:08.302Z,8.40
2019-05-12T00:38:12.599Z,8.40
2019-05-12T00:39:19.150Z,8.40
2019-05-12T00:40:23.262Z,8.40
2019-05-12T00:41:28.370Z,8.40
2019-05-12T00:42:32.767Z,8.50
2019-05-12T00:43:38.248Z,8.50
2019-05-12T00:44:43.008Z,8.50
2019-05-12T00:45:48.263Z,8.50
2019-05-12T00:46:52.686Z,8.50
2019-05-12T00:47:58.214Z,8.50
2019-05-12T00:49:02.907Z,8.50
2019-05-12T00:50:08.235Z,8.50
2019-05-12T00:51:12.647Z,8.50
2019-05-12T00:52:18.664Z,8.50
2019-05-12T00:53:36.133Z,8.50
2019-05-12T00:54:29.320Z,8.50
2019-05-12T00:55:33.647Z,8.50
2019-05-12T00:56:39.153Z,8.50
2019-05-12T00:57:43.594Z,8.40
2019-05-12T00:58:48.759Z,8.40
2019-05-12T00:59:53.091Z,8.40
2019-05-12T01:00:59.534Z,8.40
2019-05-12T01:02:03.644Z,8.40
2019-05-12T01:03:08.890Z,8.40
2019-05-12T01:04:13.245Z,8.40
2019-05-12T01:05:17.895Z,8.40
2019-05-12T01:06:22.110Z,8.40
2019-05-12T01:07:27.748Z,8.30
2019-05-12T01:08:32.090Z,8.30
2019-05-12T01:09:38.574Z,8.30
2019-05-12T01:10:42.572Z,8.30
2019-05-12T01:11:48.161Z,8.30
2019-05-12T01:12:52.492Z,8.30
2019-05-12T01:13:58.308Z,8.30
2019-05-12T01:15:02.758Z,8.30
2019-05-12T01:16:08.093Z,8.30
2019-05-12T01:17:12.531Z,8.30
2019-05-12T01:18:18.100Z,8.30
2019-05-12T01:19:22.551Z,8.30
2019-05-12T01:20:28.277Z,8.30
2019-05-12T01:21:32.878Z,8.30
2019-05-12T01:22:38.220Z,8.30
2019-05-12T01:23:53.900Z,8.30
2019-05-12T01:24:48.943Z,8.30
2019-05-12T01:25:53.191Z,8.20
2019-05-12T01:26:58.172Z,8.20
2019-05-12T01:28:02.486Z,8.20
2019-05-12T01:29:08.456Z,8.20
2019-05-12T01:30:13.002Z,8.20
2019-05-12T01:31:18.744Z,8.20
2019-05-12T01:32:31.335Z,8.20
2019-05-12T01:33:37.966Z,8.20
2019-05-12T01:34:41.789Z,8.20
2019-05-12T01:35:48.338Z,8.20
2019-05-12T01:36:54.169Z,8.10
2019-05-12T01:38:01.489Z,8.10
2019-05-12T01:39:07.756Z,8.10
2019-05-12T01:40:11.555Z,8.10
2019-05-12T01:41:17.978Z,8.10
2019-05-12T01:42:22.140Z,8.10
2019-05-12T01:43:27.770Z,8.10
2019-05-12T01:44:32.159Z,8.00
2019-05-12T01:45:37.954Z,8.00
2019-05-12T01:46:42.597Z,8.10
2019-05-12T01:47:48.600Z,8.00
2019-05-12T01:48:52.922Z,8.00
2019-05-12T01:49:58.123Z,8.00
2019-05-12T01:51:02.519Z,7.90
2019-05-12T01:52:08.706Z,8.00
2019-05-12T01:53:12.961Z,8.00
2019-05-12T01:54:18.898Z,7.90
2019-05-12T01:55:23.280Z,8.00
2019-05-12T01:56:28.772Z,7.90
2019-05-12T01:57:33.238Z,7.90
2019-05-12T01:58:38.148Z,7.90
2019-05-12T01:59:42.554Z,7.90
2019-05-12T02:00:48.230Z,7.90
2019-05-12T02:01:52.724Z,7.90
2019-05-12T02:02:58.597Z,7.90
2019-05-12T02:04:03.053Z,7.90
2019-05-12T02:05:08.896Z,7.80
2019-05-12T02:06:13.200Z,7.80
2019-05-12T02:07:18.550Z,7.80
2019-05-12T02:08:41.787Z,7.80
2019-05-12T02:09:48.081Z,7.80
2019-05-12T02:10:54.556Z,7.80
2019-05-12T02:11:58.794Z,7.80
2019-05-12T02:13:03.403Z,7.80
2019-05-12T02:14:09.288Z,7.80
2019-05-12T02:15:13.848Z,7.80
2019-05-12T02:16:18.855Z,7.80
2019-05-12T02:17:23.723Z,7.80
2019-05-12T02:18:28.174Z,7.80
2019-05-12T02:19:32.815Z,7.80
2019-05-12T02:20:38.062Z,7.80
2019-05-12T02:21:42.937Z,7.80
2019-05-12T02:22:47.761Z,7.80
2019-05-12T02:23:52.492Z,7.80
2019-05-12T02:24:58.444Z,7.80
2019-05-12T02:26:03.108Z,7.70
2019-05-12T02:27:08.288Z,7.70
2019-05-12T02:28:13.047Z,7.70
2019-05-12T02:29:18.296Z,7.70
2019-05-12T02:30:23.046Z,7.70
2019-05-12T02:31:29.407Z,7.70
2019-05-12T02:32:44.880Z,7.70
2019-05-12T02:33:39.472Z,7.70
2019-05-12T02:34:45.771Z,7.70
2019-05-12T02:35:50.074Z,7.70
2019-05-12T02:36:55.495Z,7.70
2019-05-12T02:38:00.003Z,7.70
2019-05-12T02:39:06.816Z,7.60
2019-05-12T02:40:11.059Z,7.60
2019-05-12T02:41:15.815Z,7.60
2019-05-12T02:42:20.076Z,7.60
2019-05-12T02:43:25.055Z,7.60
2019-05-12T02:44:29.267Z,7.60
2019-05-12T02:45:35.773Z,7.60
2019-05-12T02:46:39.768Z,7.60
2019-05-12T02:47:45.649Z,7.50
2019-05-12T02:48:50.225Z,7.50
2019-05-12T02:49:54.808Z,7.60
2019-05-12T02:50:59.044Z,7.50
2019-05-12T02:52:05.091Z,7.60
2019-05-12T02:53:09.487Z,7.60
2019-05-12T02:54:14.436Z,7.60
2019-05-12T02:55:18.729Z,7.60
2019-05-12T02:56:25.637Z,7.60
2019-05-12T02:57:29.187Z,7.70
2019-05-12T02:58:34.643Z,7.70
2019-05-12T02:59:39.134Z,7.70
2019-05-12T03:00:45.511Z,7.70
2019-05-12T03:01:49.613Z,7.70
2019-05-12T03:02:54.827Z,7.70
2019-05-12T03:03:59.300Z,7.70
2019-05-12T03:05:05.565Z,7.80
2019-05-12T03:06:09.801Z,7.80
2019-05-12T03:07:15.507Z,7.80
2019-05-12T03:08:19.929Z,7.80
2019-05-12T03:09:24.653Z,7.80
2019-05-12T03:10:28.836Z,7.90
2019-05-12T03:11:35.499Z,7.90
2019-05-12T03:12:39.299Z,7.90
2019-05-12T03:13:44.849Z,7.90
2019-05-12T03:14:49.246Z,7.90
2019-05-12T03:15:54.860Z,7.90
2019-05-12T03:16:59.536Z,7.90
2019-05-12T03:18:06.250Z,7.90
2019-05-12T03:19:10.033Z,7.90
2019-05-12T03:20:15.626Z,7.90
2019-05-12T03:21:19.890Z,7.90
2019-05-12T03:22:25.399Z,7.90
2019-05-12T03:23:29.780Z,7.90
2019-05-12T03:24:34.426Z,7.90
2019-05-12T03:25:38.647Z,7.90
2019-05-12T03:26:44.997Z,7.90
2019-05-12T03:27:49.104Z,7.90
2019-05-12T03:28:55.605Z,7.90
2019-05-12T03:29:59.604Z,7.90
2019-05-12T03:31:07.919Z,7.90
2019-05-12T03:32:10.093Z,7.90
2019-05-12T03:33:19.241Z,7.90
2019-05-12T03:34:21.058Z,7.90
2019-05-12T03:35:32.601Z,7.90
2019-05-12T03:36:38.971Z,7.90
2019-05-12T03:37:37.876Z,7.90
2019-05-12T03:38:44.705Z,7.90
2019-05-12T03:39:48.382Z,7.90
2019-05-12T03:40:55.118Z,7.90
2019-05-12T03:41:58.840Z,7.90
2019-05-12T03:43:05.384Z,7.90
2019-05-12T03:44:09.293Z,7.90
2019-05-12T03:45:14.938Z,8.00
2019-05-12T03:46:19.749Z,7.90
2019-05-12T03:47:25.054Z,8.00
2019-05-12T03:48:30.005Z,8.00
2019-05-12T03:49:34.869Z,8.00
2019-05-12T03:50:39.428Z,8.00
2019-05-12T03:51:45.658Z,8.00
2019-05-12T03:52:49.876Z,8.00
2019-05-12T03:53:55.681Z,8.00
2019-05-12T03:55:00.620Z,8.00
2019-05-12T03:56:04.857Z,8.00
2019-05-12T03:57:09.420Z,8.10
2019-05-12T03:58:15.328Z,8.10
2019-05-12T03:59:20.018Z,8.10
2019-05-12T04:00:24.916Z,8.10
2019-05-12T04:01:29.671Z,8.10
2019-05-12T04:02:34.213Z,8.10
2019-05-12T04:03:38.884Z,8.10
2019-05-12T04:04:45.312Z,8.10
2019-05-12T04:05:49.359Z,8.10
2019-05-12T04:06:54.364Z,8.10
2019-05-12T04:07:59.176Z,8.10
2019-05-12T04:09:05.067Z,8.10
2019-05-12T04:10:09.663Z,8.10
2019-05-12T04:11:14.731Z,8.10
2019-05-12T04:12:19.423Z,8.20
2019-05-12T04:13:26.590Z,8.20
2019-05-12T04:14:29.937Z,8.20
2019-05-12T04:15:34.981Z,8.20
2019-05-12T04:16:40.007Z,8.20
2019-05-12T04:17:45.713Z,8.30
2019-05-12T04:18:50.264Z,8.30
2019-05-12T04:19:55.064Z,8.30
2019-05-12T04:20:59.807Z,8.30
2019-05-12T04:22:05.491Z,8.30
2019-05-12T04:23:10.330Z,8.40
2019-05-12T04:24:14.724Z,8.40
2019-05-12T04:25:19.290Z,8.40
2019-05-12T04:26:25.376Z,8.40
2019-05-12T04:27:29.799Z,8.30
2019-05-12T04:28:35.155Z,8.30
2019-05-12T04:29:39.918Z,8.30
2019-05-12T04:30:44.685Z,8.30
2019-05-12T04:31:49.417Z,8.30
2019-05-12T04:32:55.275Z,8.30
2019-05-12T04:34:00.079Z,8.30
2019-05-12T04:35:05.007Z,8.20
2019-05-12T04:36:09.717Z,8.20
2019-05-12T04:37:14.883Z,8.20
2019-05-12T04:38:19.608Z,8.20
2019-05-12T04:39:25.318Z,8.20
2019-05-12T04:40:30.121Z,8.20
2019-05-12T04:41:35.395Z,8.20
2019-05-12T04:42:40.290Z,8.20
2019-05-12T04:43:44.921Z,8.20
2019-05-12T04:44:49.544Z,8.20
2019-05-12T04:45:54.900Z,8.20
2019-05-12T04:46:59.603Z,8.30
2019-05-12T04:48:05.201Z,8.30
2019-05-12T04:49:10.247Z,8.30
2019-05-12T04:50:15.625Z,8.30
2019-05-12T04:51:20.467Z,8.40
2019-05-12T04:52:25.024Z,8.40
2019-05-12T04:53:29.660Z,8.50
2019-05-12T04:54:35.604Z,8.60
2019-05-12T04:55:40.441Z,8.60
2019-05-12T04:56:45.058Z,8.70
2019-05-12T04:57:49.748Z,8.70
2019-05-12T04:58:54.691Z,8.80
2019-05-12T04:59:59.427Z,8.80
2019-05-12T05:01:06.421Z,8.90
2019-05-12T05:02:10.108Z,8.90
2019-05-12T05:03:14.573Z,9.00
2019-05-12T05:04:19.155Z,9.00
2019-05-12T05:05:24.874Z,9.10
2019-05-12T05:06:29.614Z,9.20
2019-05-12T05:07:35.841Z,9.20
2019-05-12T05:08:40.168Z,9.20
2019-05-12T05:09:44.581Z,9.30
2019-05-12T05:10:49.156Z,9.30
2019-05-12T05:11:54.283Z,9.30
2019-05-12T05:12:59.068Z,9.40
2019-05-12T05:14:04.186Z,9.40
2019-05-12T05:15:09.180Z,9.40
2019-05-12T05:16:14.413Z,9.50
2019-05-12T05:17:19.320Z,9.50
2019-05-12T05:18:23.944Z,9.60
2019-05-12T05:19:28.596Z,9.70
2019-05-12T05:20:34.438Z,9.70
2019-05-12T05:21:39.223Z,9.70
2019-05-12T05:22:44.155Z,9.80
2019-05-12T05:23:48.764Z,9.80
2019-05-12T05:24:53.662Z,10.10
2019-05-12T05:25:58.264Z,10.10
2019-05-12T05:27:04.432Z,10.10
2019-05-12T05:28:08.920Z,10.20
2019-05-12T05:29:13.675Z,10.20
2019-05-12T05:30:18.330Z,10.20
2019-05-12T05:31:24.331Z,10.30
2019-05-12T05:32:29.154Z,10.30
2019-05-12T05:33:34.060Z,10.30
2019-05-12T05:34:38.746Z,10.40
2019-05-12T05:35:43.674Z,10.70
2019-05-12T05:36:51.047Z,10.70
2019-05-12T05:37:54.520Z,10.80
2019-05-12T05:39:01.752Z,12.30
2019-05-12T05:40:05.688Z,13.30
2019-05-12T05:41:10.662Z,12.90
2019-05-12T05:42:15.119Z,12.90
2019-05-12T05:43:19.703Z,13.20
2019-05-12T05:44:24.186Z,13.50
2019-05-12T05:45:28.817Z,13.40
2019-05-12T05:46:33.725Z,13.40
2019-05-12T05:47:38.514Z,13.40
2019-05-12T05:48:44.000Z,13.40
2019-05-12T05:49:48.724Z,13.50
2019-05-12T05:50:54.165Z,13.60
2019-05-12T05:51:58.931Z,13.70
2019-05-12T05:53:03.938Z,13.90
2019-05-12T05:54:08.683Z,13.90
2019-05-12T05:55:15.632Z,13.70
2019-05-12T05:56:19.381Z,13.70
2019-05-12T05:57:25.800Z,13.70
2019-05-12T05:58:29.991Z,13.80
2019-05-12T05:59:36.838Z,13.90
2019-05-12T06:00:40.647Z,14.20
2019-05-12T06:01:46.980Z,14.20
2019-05-12T06:02:51.433Z,14.60
2019-05-12T06:03:58.387Z,14.90
2019-05-12T06:05:04.216Z,14.90
2019-05-12T06:06:12.313Z,15.00
2019-05-12T06:07:14.478Z,15.10
2019-05-12T06:08:20.759Z,15.10
2019-05-12T06:09:25.459Z,15.00
2019-05-12T06:10:36.051Z,14.90
2019-05-12T06:11:36.139Z,14.90
2019-05-12T06:12:45.555Z,14.80
2019-05-12T06:13:46.805Z,14.70
2019-05-12T06:14:57.899Z,14.60
2019-05-12T06:15:57.582Z,14.60
2019-05-12T06:17:04.173Z,14.60
2019-05-12T06:18:08.388Z,14.70
2019-05-12T06:19:14.112Z,14.80
2019-05-12T06:20:18.863Z,14.90
2019-05-12T06:21:24.198Z,15.10
2019-05-12T06:22:28.876Z,15.00
2019-05-12T06:23:34.896Z,14.90
2019-05-12T06:24:39.562Z,14.90
2019-05-12T06:25:47.457Z,14.90
2019-05-12T06:26:57.697Z,15.00
2019-05-12T06:28:00.078Z,15.10
2019-05-12T06:29:04.489Z,15.20
2019-05-12T06:30:09.134Z,15.00
2019-05-12T06:31:13.978Z,14.90
2019-05-12T06:32:18.435Z,14.70
2019-05-12T06:33:31.302Z,14.50
2019-05-12T06:34:29.126Z,14.30
2019-05-12T06:35:37.550Z,14.20
2019-05-12T06:36:49.323Z,14.30
2019-05-12T06:38:00.098Z,14.40
2019-05-12T06:39:00.047Z,14.50
2019-05-12T06:40:04.659Z,14.60
2019-05-12T06:41:12.674Z,14.70
2019-05-12T06:42:16.951Z,14.70
2019-05-12T06:43:21.412Z,14.70
2019-05-12T06:44:26.011Z,14.70
2019-05-12T06:45:33.975Z,14.60
2019-05-12T06:46:36.715Z,14.50
2019-05-12T06:47:45.428Z,14.40
2019-05-12T06:48:47.410Z,14.20
2019-05-12T06:49:56.440Z,14.10
2019-05-12T06:50:58.087Z,14.10
2019-05-12T06:52:07.075Z,14.10
2019-05-12T06:53:09.911Z,14.10
2019-05-12T06:54:15.089Z,14.20
2019-05-12T06:55:19.942Z,14.20
2019-05-12T06:56:24.354Z,14.20
2019-05-12T06:57:29.093Z,14.20
2019-05-12T06:58:34.373Z,14.30
2019-05-12T06:59:41.986Z,14.40
2019-05-12T07:00:45.410Z,14.50
2019-05-12T07:01:54.975Z,14.50
2019-05-12T07:02:56.012Z,14.50
2019-05-12T07:04:05.692Z,14.50
2019-05-12T07:05:06.656Z,14.40
2019-05-12T07:06:18.023Z,14.40
2019-05-12T07:07:17.317Z,14.40
2019-05-12T07:08:27.491Z,14.40
2019-05-12T07:09:29.458Z,14.50
2019-05-12T07:10:39.344Z,14.50
2019-05-12T07:11:45.114Z,14.60
2019-05-12T07:12:59.035Z,14.90
2019-05-12T07:14:02.109Z,15.10
2019-05-12T07:14:58.886Z,15.20
2019-05-12T07:16:22.964Z,15.30
2019-05-12T07:17:44.193Z,15.40
2019-05-12T07:18:48.352Z,15.50
2019-05-12T07:19:56.957Z,15.70
2019-05-12T07:20:59.030Z,15.80
2019-05-12T07:22:18.821Z,15.80
2019-05-12T07:23:09.702Z,15.80
2019-05-12T07:24:14.518Z,15.60
2019-05-12T07:25:24.604Z,15.50
2019-05-12T07:26:25.467Z,15.50
2019-05-12T07:27:36.772Z,15.40
2019-05-12T07:28:40.192Z,15.10
2019-05-12T07:29:43.608Z,14.90
2019-05-12T07:30:48.500Z,14.80
2019-05-12T07:31:53.736Z,14.80
2019-05-12T07:33:01.134Z,14.80
2019-05-12T07:34:07.673Z,14.90
2019-05-12T07:35:12.107Z,15.00
2019-05-12T07:36:16.313Z,15.10
2019-05-12T07:37:23.166Z,15.30
2019-05-12T07:38:27.159Z,15.50
2019-05-12T07:39:37.007Z,15.60
2019-05-12T07:40:38.148Z,15.70
2019-05-12T07:41:50.801Z,15.70
2019-05-12T07:42:49.200Z,15.80
2019-05-12T07:43:59.038Z,15.90
2019-05-12T07:45:00.116Z,16.00
2019-05-12T07:46:07.176Z,16.10
2019-05-12T07:47:10.787Z,16.30
2019-05-12T07:48:15.558Z,16.10
2019-05-12T07:49:22.678Z,16.00
2019-05-12T07:50:27.365Z,15.70
2019-05-12T07:51:38.847Z,15.80
2019-05-12T07:52:38.150Z,15.80
2019-05-12T07:53:46.937Z,15.80
2019-05-12T07:54:48.787Z,15.80
2019-05-12T07:55:53.349Z,15.80
2019-05-12T07:57:05.387Z,15.70
2019-05-12T07:58:13.457Z,15.70
2019-05-12T07:59:10.697Z,15.70
2019-05-12T08:00:21.119Z,15.70
2019-05-12T08:01:23.485Z,15.70
2019-05-12T08:02:31.714Z,15.70
2019-05-12T08:03:34.540Z,15.70
2019-05-12T08:04:39.713Z,15.80
2019-05-12T08:05:45.234Z,15.90
2019-05-12T08:06:49.450Z,15.80
2019-05-12T08:07:54.223Z,15.60
2019-05-12T08:08:59.175Z,15.40
2019-05-12T08:10:07.354Z,15.30
2019-05-12T08:11:09.920Z,15.40
2019-05-12T08:12:16.453Z,15.80
2019-05-12T08:13:20.562Z,16.30
2019-05-12T08:14:29.331Z,16.90
2019-05-12T08:15:33.726Z,17.10
2019-05-12T08:16:37.639Z,17.30
2019-05-12T08:17:43.878Z,17.50
2019-05-12T08:18:48.295Z,17.40
2019-05-12T08:19:53.607Z,17.60
2019-05-12T08:21:00.125Z,18.00
2019-05-12T08:22:04.532Z,18.40
2019-05-12T08:23:10.710Z,18.70
2019-05-12T08:24:15.050Z,19.00
2019-05-12T08:25:24.782Z,19.30
2019-05-12T08:26:25.710Z,19.60
2019-05-12T08:27:30.513Z,19.90
2019-05-12T08:28:40.053Z,20.20
2019-05-12T08:29:43.298Z,20.50
2019-05-12T08:30:52.053Z,20.70
2019-05-12T08:31:54.888Z,21.10
2019-05-12T08:33:07.283Z,21.50
2019-05-12T08:34:05.586Z,22.00
2019-05-12T08:35:09.807Z,22.60
2019-05-12T08:36:16.392Z,23.20
2019-05-12T08:37:20.563Z,23.50
2019-05-12T08:38:25.373Z,23.90
2019-05-12T08:39:29.726Z,24.60
2019-05-12T08:40:39.823Z,25.40
2019-05-12T08:41:40.421Z,25.20
2019-05-12T08:42:45.196Z,24.60
2019-05-12T08:43:54.890Z,23.70
2019-05-12T08:44:55.888Z,23.10
2019-05-12T08:46:05.354Z,22.60
2019-05-12T08:47:06.547Z,22.10
2019-05-12T08:48:17.173Z,21.70
2019-05-12T08:49:17.215Z,21.30
2019-05-12T08:50:23.270Z,20.90
2019-05-12T08:51:27.884Z,20.60
2019-05-12T08:52:37.317Z,20.30
2019-05-12T08:53:38.507Z,19.90
2019-05-12T08:54:45.363Z,19.60
2019-05-12T08:55:49.150Z,19.40
2019-05-12T08:56:59.359Z,19.10
2019-05-12T08:57:59.830Z,18.90
2019-05-12T08:59:04.452Z,18.70
2019-05-12T09:00:09.333Z,18.50
2019-05-12T09:01:13.876Z,18.30
2019-05-12T09:02:18.795Z,18.20
2019-05-12T09:03:27.100Z,18.10
2019-05-12T09:04:29.431Z,18.10
2019-05-12T09:05:38.075Z,18.10
2019-05-12T09:06:40.064Z,19.40
2019-05-12T09:07:44.308Z,18.90
2019-05-12T09:08:49.631Z,18.80
2019-05-12T09:09:53.982Z,20.50
2019-05-12T09:10:58.743Z,22.00
2019-05-12T09:12:03.583Z,23.50
2019-05-12T09:13:08.507Z,24.90
2019-05-12T09:14:14.631Z,26.00
2019-05-12T09:15:19.164Z,27.00
2019-05-12T09:16:24.445Z,27.80
2019-05-12T09:17:29.486Z,28.60
2019-05-12T09:18:37.532Z,29.40
2019-05-12T09:19:40.134Z,30.30
2019-05-12T09:20:48.908Z,31.10
2019-05-12T09:21:50.779Z,31.90
2019-05-12T09:23:00.566Z,32.70
2019-05-12T09:24:01.439Z,33.00
2019-05-12T09:25:08.282Z,33.50
2019-05-12T09:26:13.549Z,33.90
2019-05-12T09:27:17.915Z,34.40
2019-05-12T09:28:24.005Z,34.90
2019-05-12T09:29:28.317Z,35.20
2019-05-12T09:30:33.840Z,35.40
2019-05-12T09:31:38.159Z,35.60
2019-05-12T09:32:48.253Z,35.70
2019-05-12T09:33:48.824Z,35.60
2019-05-12T09:34:58.056Z,34.40
2019-05-12T09:35:59.510Z,33.10
2019-05-12T09:37:04.363Z,32.10
2019-05-12T09:38:11.311Z,31.10
2019-05-12T09:39:15.039Z,31.40
2019-05-12T09:40:20.730Z,32.30
2019-05-12T09:41:25.672Z,32.80
2019-05-12T09:42:30.171Z,33.30
2019-05-12T09:43:34.982Z,34.00
2019-05-12T09:44:41.322Z,34.50
2019-05-12T09:45:51.557Z,35.00
2019-05-12T09:46:53.409Z,35.40
2019-05-12T09:47:58.817Z,36.00
2019-05-12T09:49:04.203Z,36.40
2019-05-12T09:50:09.765Z,36.70
2019-05-12T09:51:17.190Z,37.00
2019-05-12T09:52:23.202Z,37.50
2019-05-12T09:53:27.343Z,37.60
2019-05-12T09:54:35.436Z,37.80
2019-05-12T09:55:37.975Z,37.80
2019-05-12T09:56:44.168Z,38.00
2019-05-12T09:57:48.608Z,37.60
2019-05-12T09:59:01.549Z,37.60
2019-05-12T09:59:59.655Z,37.90
2019-05-12T10:01:04.646Z,38.10
2019-05-12T10:02:10.544Z,37.90
2019-05-12T10:03:15.300Z,38.00
2019-05-12T10:04:19.792Z,38.30
2019-05-12T10:05:24.575Z,38.70
2019-05-12T10:06:28.812Z,39.00
2019-05-12T10:07:34.029Z,38.90
2019-05-12T10:08:38.338Z,39.50
2019-05-12T10:09:44.015Z,39.20
2019-05-12T10:10:48.242Z,38.20
2019-05-12T10:12:00.280Z,37.40
2019-05-12T10:12:58.984Z,36.50
2019-05-12T10:14:06.517Z,35.50
2019-05-12T10:15:10.103Z,35.10
2019-05-12T10:16:14.890Z,34.40
2019-05-12T10:17:20.217Z,33.80
2019-05-12T10:18:25.589Z,33.30
2019-05-12T10:19:29.802Z,33.90
2019-05-12T10:20:39.501Z,34.10
2019-05-12T10:21:40.468Z,34.30
2019-05-12T10:22:45.255Z,34.60
2019-05-12T10:23:51.413Z,35.30
2019-05-12T10:24:58.610Z,35.60
2019-05-12T10:26:09.484Z,35.90
2019-05-12T10:27:08.386Z,36.60
2019-05-12T10:28:15.357Z,36.80
2019-05-12T10:29:20.790Z,36.70
2019-05-12T10:30:24.954Z,36.80
2019-05-12T10:31:34.550Z,36.60
2019-05-12T10:32:35.758Z,36.40
2019-05-12T10:33:40.578Z,36.90
2019-05-12T10:34:44.821Z,37.50
2019-05-12T10:35:49.587Z,38.10
2019-05-12T10:36:54.163Z,38.60
2019-05-12T10:38:00.093Z,38.10
2019-05-12T10:39:05.400Z,36.90
2019-05-12T10:40:10.211Z,36.50
2019-05-12T10:41:14.432Z,36.30
2019-05-12T10:42:19.192Z,36.20
2019-05-12T10:43:23.721Z,36.00
2019-05-12T10:44:29.895Z,35.90
2019-05-12T10:45:35.447Z,35.50
2019-05-12T10:46:42.381Z,35.30
2019-05-12T10:47:46.112Z,34.60
2019-05-12T10:48:50.883Z,33.80
2019-05-12T10:49:55.136Z,33.30
2019-05-12T10:50:59.939Z,32.70
2019-05-12T10:52:04.193Z,32.20
2019-05-12T10:53:09.913Z,31.40
2019-05-12T10:54:15.657Z,30.60
2019-05-12T10:55:20.775Z,30.10
2019-05-12T10:56:24.998Z,29.40
2019-05-12T10:57:29.771Z,28.10
2019-05-12T10:58:33.992Z,27.50
2019-05-12T10:59:46.160Z,27.20
2019-05-12T11:00:58.810Z,26.90
2019-05-12T11:02:03.360Z,27.90
2019-05-12T11:03:10.738Z,29.00
2019-05-12T11:04:14.338Z,30.10
2019-05-12T11:05:25.479Z,31.20
2019-05-12T11:06:25.082Z,31.90
2019-05-12T11:07:30.028Z,32.70
2019-05-12T11:08:34.811Z,33.00
2019-05-12T11:09:39.086Z,33.30
2019-05-12T11:10:43.866Z,33.60
2019-05-12T11:11:48.084Z,34.00
2019-05-12T11:12:52.859Z,34.80
2019-05-12T11:13:57.083Z,35.30
2019-05-12T11:15:06.650Z,35.90
2019-05-12T11:16:07.769Z,36.50
2019-05-12T11:17:13.783Z,36.90
2019-05-12T11:18:24.601Z,37.30
2019-05-12T11:19:26.548Z,37.40
2019-05-12T11:20:30.794Z,36.70
2019-05-12T11:21:35.569Z,36.60
2019-05-12T11:22:39.814Z,36.20
2019-05-12T11:23:44.601Z,35.80
2019-05-12T11:24:52.341Z,35.90
2019-05-12T11:25:55.321Z,35.90
2019-05-12T11:26:59.555Z,35.90
2019-05-12T11:28:04.455Z,36.40
2019-05-12T11:29:08.680Z,36.60
2019-05-12T11:30:13.801Z,37.00
2019-05-12T11:31:18.014Z,36.60
2019-05-12T11:32:23.246Z,36.00
2019-05-12T11:33:27.565Z,35.90
2019-05-12T11:34:33.542Z,36.20
2019-05-12T11:35:38.003Z,36.50
2019-05-12T11:36:43.753Z,36.60
2019-05-12T11:37:48.103Z,36.60
2019-05-12T11:38:53.441Z,36.60
2019-05-12T11:39:57.783Z,35.90
2019-05-12T11:41:04.228Z,34.80
2019-05-12T11:42:08.623Z,33.90
2019-05-12T11:43:14.319Z,33.30
2019-05-12T11:44:18.823Z,32.50
2019-05-12T11:45:24.220Z,32.10
2019-05-12T11:46:28.571Z,32.20
2019-05-12T11:47:37.129Z,31.70
2019-05-12T11:48:40.271Z,31.40
2019-05-12T11:49:45.660Z,31.00
2019-05-12T11:50:51.379Z,30.70
2019-05-12T11:52:01.134Z,30.60
2019-05-12T11:53:04.305Z,30.50
2019-05-12T11:54:10.793Z,30.40
2019-05-12T11:55:14.852Z,30.30
2019-05-12T11:56:19.663Z,30.10
2019-05-12T11:57:26.173Z,29.70
2019-05-12T11:58:30.369Z,29.20
2019-05-12T11:59:34.590Z,29.00
2019-05-12T12:00:41.346Z,28.90
2019-05-12T12:01:49.801Z,28.80
2019-05-12T12:02:53.262Z,28.40
2019-05-12T12:03:57.478Z,28.10
2019-05-12T12:05:02.270Z,27.70
2019-05-12T12:06:06.518Z,27.20
2019-05-12T12:07:11.320Z,27.00
2019-05-12T12:08:15.557Z,26.50
2019-05-12T12:09:20.306Z,25.80
2019-05-12T12:10:29.371Z,25.30
2019-05-12T12:11:31.010Z,25.10
2019-05-12T12:12:39.523Z,25.10
2019-05-12T12:13:41.691Z,25.10
2019-05-12T12:14:50.194Z,25.10
2019-05-12T12:15:52.339Z,25.10
2019-05-12T12:16:56.604Z,25.00
2019-05-12T12:18:03.870Z,24.90
2019-05-12T12:19:07.245Z,24.70
2019-05-12T12:20:13.912Z,24.50
2019-05-12T12:21:17.959Z,24.40
2019-05-12T12:22:26.456Z,24.40
2019-05-12T12:23:28.624Z,24.30
2019-05-12T12:24:33.696Z,24.20
2019-05-12T12:25:37.898Z,23.90
2019-05-12T12:26:44.546Z,23.80
2019-05-12T12:27:48.579Z,23.60
2019-05-12T12:28:53.830Z,23.40
2019-05-12T12:29:57.975Z,23.40
2019-05-12T12:31:05.369Z,23.40
2019-05-12T12:32:10.003Z,23.40
2019-05-12T12:33:15.108Z,23.40
2019-05-12T12:34:23.523Z,23.40
2019-05-12T12:35:26.036Z,23.30
2019-05-12T12:36:30.295Z,23.10
2019-05-12T12:37:35.108Z,23.00
2019-05-12T12:38:39.340Z,22.90
2019-05-12T12:39:44.125Z,22.70
2019-05-12T12:40:48.367Z,22.30
2019-05-12T12:41:59.526Z,22.10
2019-05-12T12:42:59.100Z,22.00
2019-05-12T12:44:04.598Z,22.10
2019-05-12T12:45:46.319Z,22.40
2019-05-12T12:46:51.264Z,22.60
2019-05-12T12:47:57.002Z,22.90
2019-05-12T12:49:06.549Z,23.00
2019-05-12T12:50:07.682Z,23.00
2019-05-12T12:51:15.337Z,23.00
2019-05-12T12:52:18.442Z,23.00
2019-05-12T12:53:23.810Z,22.90
2019-05-12T12:54:29.026Z,22.80
2019-05-12T12:55:33.236Z,22.80
2019-05-12T12:56:38.040Z,22.90
2019-05-12T12:57:46.387Z,22.80
2019-05-12T12:58:48.689Z,23.00
2019-05-12T12:59:52.966Z,23.10
2019-05-12T13:00:58.007Z,23.20
2019-05-12T13:02:05.902Z,23.40
2019-05-12T13:03:08.704Z,23.30
2019-05-12T13:04:13.218Z,23.30
2019-05-12T13:05:18.202Z,23.10
2019-05-12T13:06:23.862Z,23.00
2019-05-12T13:07:28.735Z,23.00
2019-05-12T13:08:34.231Z,23.00
2019-05-12T13:09:39.221Z,23.00
2019-05-12T13:10:47.138Z,22.80
2019-05-12T13:11:49.881Z,22.70
2019-05-12T13:12:59.125Z,22.50
2019-05-12T13:14:00.559Z,22.40
2019-05-12T13:15:04.968Z,22.30
2019-05-12T13:16:09.734Z,22.30
2019-05-12T13:17:14.271Z,22.20
2019-05-12T13:18:27.428Z,22.20
2019-05-12T13:19:25.044Z,22.10
2019-05-12T13:20:29.820Z,22.10
2019-05-12T13:21:34.039Z,22.00
2019-05-12T13:22:38.798Z,21.80
2019-05-12T13:23:45.276Z,21.50
2019-05-12T13:24:49.422Z,21.20
2019-05-12T13:25:54.677Z,20.90
2019-05-12T13:26:59.658Z,20.60
2019-05-12T13:28:10.354Z,20.40
2019-05-12T13:29:10.330Z,20.20
2019-05-12T13:30:19.845Z,20.10
2019-05-12T13:31:20.904Z,19.90
2019-05-12T13:32:32.048Z,19.80
2019-05-12T13:33:33.707Z,19.80
2019-05-12T13:34:38.627Z,19.80
2019-05-12T13:35:43.626Z,19.70
2019-05-12T13:36:47.929Z,19.60
2019-05-12T13:37:56.370Z,19.40
2019-05-12T13:38:58.624Z,19.30
2019-05-12T13:40:03.418Z,19.30
2019-05-12T13:41:09.517Z,19.40
2019-05-12T13:42:14.058Z,19.50
2019-05-12T13:43:19.667Z,19.40
2019-05-12T13:44:24.590Z,19.40
2019-05-12T13:45:28.804Z,19.30
2019-05-12T13:46:34.482Z,19.30
2019-05-12T13:47:40.052Z,19.40
2019-05-12T13:48:44.973Z,19.50
2019-05-12T13:49:49.194Z,19.70
2019-05-12T13:51:06.933Z,19.90
2019-05-12T13:51:59.786Z,20.10
2019-05-12T13:53:08.666Z,20.30
2019-05-12T13:54:10.512Z,20.50
2019-05-12T13:55:15.287Z,20.70
2019-05-12T13:56:24.650Z,20.80
2019-05-12T13:57:25.936Z,20.70
2019-05-12T13:58:34.521Z,20.60
2019-05-12T13:59:36.606Z,20.60
2019-05-12T14:00:41.377Z,20.60
2019-05-12T14:01:47.271Z,20.60
2019-05-12T14:02:55.438Z,20.60
2019-05-12T14:03:57.998Z,20.70
2019-05-12T14:05:06.975Z,20.60
2019-05-12T14:06:08.723Z,20.60
2019-05-12T14:07:17.704Z,20.70
2019-05-12T14:08:19.417Z,20.80
2019-05-12T14:09:23.927Z,20.90
2019-05-12T14:10:28.851Z,21.00
2019-05-12T14:11:34.406Z,21.00
2019-05-12T14:12:39.368Z,21.00